createdAt,value
2018-05-10T00:00:41.465Z,7.70
2018-05-10T00:03:09.567Z,11.70
2018-05-10T00:05:37.702Z,7.53
2018-05-10T00:08:05.785Z,7.00
2018-05-10T00:10:34.005Z,7.30
2018-05-10T00:13:02.137Z,8.40
2018-05-10T00:15:30.242Z,9.77
2018-05-10T00:17:58.367Z,6.70
2018-05-10T00:20:27.193Z,7.07
2018-05-10T00:22:55.435Z,6.07
2018-05-10T00:25:23.549Z,6.40
2018-05-10T00:27:56.909Z,6.20
2018-05-10T00:30:25.014Z,6.70
2018-05-10T00:32:53.153Z,6.67
2018-05-10T00:35:21.380Z,6.97
2018-05-10T00:37:49.646Z,6.90
2018-05-10T00:40:17.839Z,7.20
2018-05-10T00:42:46.132Z,6.93
2018-05-10T00:45:14.356Z,6.00
2018-05-10T00:47:42.550Z,6.80
2018-05-10T00:50:10.730Z,6.70
2018-05-10T00:52:38.813Z,6.80
2018-05-10T00:55:06.944Z,8.43
2018-05-10T00:57:35.647Z,7.97
2018-05-10T01:00:03.837Z,6.40
2018-05-10T01:02:32.137Z,6.40
2018-05-10T01:05:00.399Z,5.57
2018-05-10T01:07:28.545Z,5.27
2018-05-10T01:09:56.645Z,6.27
2018-05-10T01:12:24.763Z,5.90
2018-05-10T01:14:52.876Z,8.23
2018-05-10T01:17:21.011Z,5.77
2018-05-10T01:19:49.113Z,6.20
2018-05-10T01:22:17.251Z,5.67
2018-05-10T01:24:46.177Z,6.03
2018-05-10T01:27:14.327Z,7.43
2018-05-10T01:29:42.436Z,5.80
2018-05-10T01:32:10.539Z,6.00
2018-05-10T01:34:38.659Z,6.40
2018-05-10T01:37:07.281Z,6.67
2018-05-10T01:39:35.425Z,5.67
2018-05-10T01:42:03.526Z,5.63
2018-05-10T01:44:31.632Z,5.47
2018-05-10T01:46:59.744Z,6.17
2018-05-10T01:49:27.866Z,6.00
2018-05-10T01:51:56.002Z,6.10
2018-05-10T01:54:24.230Z,5.10
2018-05-10T01:56:52.356Z,5.17
2018-05-10T01:59:20.532Z,4.47
2018-05-10T02:01:48.699Z,5.23
2018-05-10T02:04:16.810Z,6.63
2018-05-10T02:06:44.936Z,4.40
2018-05-10T02:09:13.034Z,5.20
2018-05-10T02:11:41.156Z,5.23
2018-05-10T02:14:09.500Z,5.23
2018-05-10T02:16:37.604Z,6.13
2018-05-10T02:19:05.778Z,5.30
2018-05-10T02:21:33.923Z,5.03
2018-05-10T02:24:02.067Z,4.33
2018-05-10T02:26:30.169Z,4.27
2018-05-10T02:28:59.008Z,3.83
2018-05-10T02:31:27.141Z,4.33
2018-05-10T02:33:55.265Z,3.97
2018-05-10T02:36:23.581Z,4.87
2018-05-10T02:38:51.778Z,3.67
2018-05-10T02:41:20.038Z,3.20
2018-05-10T02:43:48.185Z,4.13
2018-05-10T02:46:16.383Z,4.07
2018-05-10T02:48:44.510Z,3.40
2018-05-10T02:51:12.656Z,3.47
2018-05-10T02:53:40.755Z,3.17
2018-05-10T02:56:08.912Z,3.90
2018-05-10T02:58:37.024Z,3.80
2018-05-10T03:01:05.136Z,3.27
2018-05-10T03:03:33.300Z,3.50
2018-05-10T03:06:02.176Z,4.80
2018-05-10T03:08:30.365Z,4.73
2018-05-10T03:10:58.500Z,3.67
2018-05-10T03:13:26.618Z,3.70
2018-05-10T03:15:54.754Z,3.50
2018-05-10T03:18:23.734Z,3.93
2018-05-10T03:20:51.844Z,4.17
2018-05-10T03:23:19.968Z,3.63
2018-05-10T03:25:48.098Z,3.00
2018-05-10T03:28:16.188Z,3.43
2018-05-10T03:30:44.311Z,5.47
2018-05-10T03:33:12.500Z,3.90
2018-05-10T03:35:40.541Z,3.63
2018-05-10T03:38:08.755Z,4.43
2018-05-10T03:40:37.697Z,4.67
2018-05-10T03:43:05.749Z,5.13
2018-05-10T03:45:33.885Z,4.27
2018-05-10T03:48:01.977Z,5.10
2018-05-10T03:50:30.136Z,4.90
2018-05-10T03:52:58.227Z,4.23
2018-05-10T03:55:26.341Z,5.27
2018-05-10T03:57:54.493Z,5.00
2018-05-10T04:00:22.711Z,4.70
2018-05-10T04:06:39.013Z,4.37
2018-05-10T04:09:24.874Z,4.70
2018-05-10T04:11:53.560Z,3.90
2018-05-10T04:14:21.763Z,3.60
2018-05-10T04:16:50.607Z,2.87
2018-05-10T04:19:18.726Z,3.17
2018-05-10T04:21:46.836Z,4.10
2018-05-10T04:24:14.977Z,4.60
2018-05-10T04:26:43.092Z,4.57
2018-05-10T04:29:11.960Z,3.53
2018-05-10T04:31:40.072Z,3.23
2018-05-10T04:34:08.178Z,3.57
2018-05-10T04:36:36.288Z,2.70
2018-05-10T04:39:04.427Z,2.87
2018-05-10T04:41:33.231Z,3.53
2018-05-10T04:44:01.349Z,2.80
2018-05-10T04:46:29.464Z,2.77
2018-05-10T04:48:57.552Z,2.60
2018-05-10T04:51:25.698Z,3.67
2018-05-10T04:53:53.805Z,3.90
2018-05-10T04:56:21.917Z,2.70
2018-05-10T04:58:50.003Z,2.50
2018-05-10T05:01:18.127Z,4.40
2018-05-10T05:03:46.984Z,3.43
2018-05-10T05:06:15.116Z,3.70
2018-05-10T05:08:43.902Z,2.80
2018-05-10T05:11:12.028Z,3.97
2018-05-10T05:13:40.725Z,2.73
2018-05-10T05:16:08.875Z,4.87
2018-05-10T05:18:37.059Z,3.23
2018-05-10T05:21:05.184Z,2.83
2018-05-10T05:23:33.319Z,2.93
2018-05-10T05:26:02.021Z,3.77
2018-05-10T05:28:30.130Z,5.93
2018-05-10T05:30:58.310Z,4.30
2018-05-10T05:33:26.487Z,4.83
2018-05-10T05:35:54.585Z,3.53
2018-05-10T05:38:22.703Z,3.07
2018-05-10T05:40:50.820Z,4.20
2018-05-10T05:43:19.068Z,3.73
2018-05-10T05:45:47.750Z,3.47
2018-05-10T05:48:15.860Z,2.67
2018-05-10T05:50:43.981Z,4.20
2018-05-10T05:53:12.102Z,2.93
2018-05-10T05:55:40.965Z,2.90
2018-05-10T05:58:09.075Z,3.93
2018-05-10T06:00:37.200Z,2.50
2018-05-10T06:03:05.361Z,3.53
2018-05-10T06:05:33.455Z,3.77
2018-05-10T06:08:02.193Z,2.67
2018-05-10T06:10:30.311Z,2.67
2018-05-10T06:12:58.418Z,3.00
2018-05-10T06:15:26.633Z,2.87
2018-05-10T06:17:55.346Z,3.87
2018-05-10T06:20:23.786Z,2.13
2018-05-10T06:22:52.649Z,2.87
2018-05-10T06:25:21.164Z,3.33
2018-05-10T06:27:50.027Z,2.03
2018-05-10T06:30:25.640Z,2.73
2018-05-10T06:33:04.760Z,1.80
2018-05-10T06:35:36.995Z,3.00
2018-05-10T06:38:27.222Z,2.87
2018-05-10T06:41:14.617Z,1.80
2018-05-10T06:44:00.231Z,2.23
2018-05-10T06:46:29.669Z,2.63
2018-05-10T06:49:08.241Z,2.20
2018-05-10T06:51:36.536Z,2.20
2018-05-10T06:54:04.824Z,2.43
2018-05-10T06:56:33.039Z,1.77
2018-05-10T06:59:01.556Z,2.00
2018-05-10T07:01:29.705Z,2.50
2018-05-10T07:03:58.201Z,1.93
2018-05-10T07:06:34.196Z,3.33
2018-05-10T07:09:02.378Z,1.40
2018-05-10T07:11:30.585Z,1.70
2018-05-10T07:14:02.391Z,1.60
2018-05-10T07:16:37.244Z,5.27
2018-05-10T07:19:23.025Z,1.50
2018-05-10T07:22:03.682Z,1.87
2018-05-10T07:24:31.900Z,1.70
2018-05-10T07:27:00.031Z,1.97
2018-05-10T07:29:28.139Z,1.60
2018-05-10T07:31:56.247Z,3.40
2018-05-10T07:34:24.345Z,3.07
2018-05-10T07:36:52.463Z,1.40
2018-05-10T07:39:20.566Z,2.40
2018-05-10T07:41:48.676Z,2.07
2018-05-10T07:44:16.785Z,4.40
2018-05-10T07:46:45.021Z,1.77
2018-05-10T07:49:13.247Z,2.10
2018-05-10T07:51:41.802Z,1.70
2018-05-10T07:54:09.922Z,4.53
2018-05-10T07:56:38.078Z,1.67
2018-05-10T07:59:06.288Z,3.53
2018-05-10T08:01:34.586Z,5.03
2018-05-10T08:04:02.844Z,2.00
2018-05-10T08:06:31.059Z,2.67
2018-05-10T08:08:59.233Z,4.40
2018-05-10T08:11:27.367Z,6.53
2018-05-10T08:13:56.062Z,3.93
2018-05-10T08:16:24.992Z,3.17
2018-05-10T08:18:53.933Z,4.50
2018-05-10T08:21:37.268Z,5.87
2018-05-10T08:24:05.440Z,6.90
2018-05-10T08:26:33.563Z,2.70
2018-05-10T08:29:01.747Z,3.63
2018-05-10T08:31:29.863Z,2.80
2018-05-10T08:33:58.016Z,3.10
2018-05-10T08:36:26.793Z,7.40
2018-05-10T08:38:54.831Z,5.73
2018-05-10T08:41:23.719Z,5.90
2018-05-10T08:43:52.603Z,7.90
2018-05-10T08:46:20.695Z,4.13
2018-05-10T08:48:49.573Z,4.57
2018-05-10T08:51:18.556Z,3.73
2018-05-10T08:53:46.680Z,4.33
2018-05-10T08:56:15.059Z,5.30
2018-05-10T08:58:43.443Z,3.00
2018-05-10T09:01:12.795Z,4.73
2018-05-10T09:03:41.701Z,2.63
2018-05-10T09:06:10.994Z,4.17
2018-05-10T09:08:39.129Z,7.40
2018-05-10T09:11:07.309Z,2.30
2018-05-10T09:13:35.812Z,5.87
2018-05-10T09:16:03.935Z,4.27
2018-05-10T09:18:32.234Z,3.43
2018-05-10T09:21:00.381Z,4.00
2018-05-10T09:23:28.500Z,2.23
2018-05-10T09:25:56.602Z,5.23
2018-05-10T09:28:25.596Z,3.83
2018-05-10T09:30:53.908Z,2.40
2018-05-10T09:33:22.454Z,2.87
2018-05-10T09:35:50.577Z,3.47
2018-05-10T09:38:18.766Z,2.57
2018-05-10T09:40:46.904Z,1.90
2018-05-10T09:43:15.155Z,1.60
2018-05-10T09:45:43.392Z,2.73
2018-05-10T09:48:11.573Z,3.67
2018-05-10T09:50:39.808Z,2.47
2018-05-10T09:53:07.938Z,2.27
2018-05-10T10:08:31.567Z,1.90
2018-05-10T10:11:01.351Z,4.00
2018-05-10T10:13:29.556Z,2.93
2018-05-10T10:15:57.663Z,2.73
2018-05-10T10:18:27.455Z,1.70
2018-05-10T10:20:56.155Z,5.37
2018-05-10T10:23:24.271Z,1.60
2018-05-10T10:25:52.452Z,2.47
2018-05-10T10:28:21.171Z,1.73
2018-05-10T10:30:50.183Z,1.70
2018-05-10T10:33:19.307Z,4.93
2018-05-10T10:35:49.934Z,4.63
2018-05-10T10:38:18.061Z,3.03
2018-05-10T10:40:46.151Z,1.20
2018-05-10T10:43:14.344Z,1.73
2018-05-10T10:45:42.528Z,1.67
2018-05-10T10:48:10.806Z,1.93
2018-05-10T10:50:40.967Z,2.00
2018-05-10T10:53:11.734Z,2.33
2018-05-10T10:55:39.833Z,2.57
2018-05-10T10:58:11.469Z,3.00
2018-05-10T11:00:39.550Z,3.13
2018-05-10T11:03:08.796Z,3.73
2018-05-10T11:05:36.979Z,2.80
2018-05-10T11:08:05.412Z,10.30
2018-05-10T11:10:33.510Z,3.10
2018-05-10T11:13:01.744Z,3.40
2018-05-10T11:15:29.850Z,2.10
2018-05-10T11:17:57.982Z,4.03
2018-05-10T11:20:26.734Z,3.57
2018-05-10T11:22:54.856Z,5.83
2018-05-10T11:25:23.039Z,2.60
2018-05-10T11:27:51.252Z,2.43
2018-05-10T11:30:19.484Z,1.57
2018-05-10T11:32:47.817Z,6.40
2018-05-10T11:35:16.192Z,2.53
2018-05-10T11:37:44.315Z,4.03
2018-05-10T11:40:13.200Z,2.87
2018-05-10T11:42:41.450Z,4.53
2018-05-10T11:45:09.555Z,2.60
2018-05-10T11:47:37.671Z,2.43
2018-05-10T11:50:05.845Z,1.97
2018-05-10T11:52:33.961Z,3.30
2018-05-10T11:55:02.102Z,6.63
2018-05-10T11:57:30.248Z,2.13
2018-05-10T11:59:58.359Z,3.40
2018-05-10T12:02:26.598Z,3.17
2018-05-10T12:04:55.380Z,1.93
2018-05-10T12:07:23.764Z,6.30
2018-05-10T12:09:51.958Z,3.53
2018-05-10T12:12:20.074Z,3.13
2018-05-10T12:14:48.236Z,2.63
2018-05-10T12:17:16.376Z,7.90
2018-05-10T12:19:44.539Z,4.30
2018-05-10T12:22:12.640Z,2.20
2018-05-10T12:24:40.946Z,4.90
2018-05-10T12:27:09.120Z,5.47
2018-05-10T12:29:37.502Z,2.33
2018-05-10T12:32:05.686Z,5.90
2018-05-10T12:34:33.945Z,4.40
2018-05-10T12:37:02.611Z,2.90
2018-05-10T12:39:37.562Z,6.93
2018-05-10T12:42:06.909Z,4.73
2018-05-10T12:44:35.511Z,6.43
2018-05-10T12:47:03.696Z,7.33
2018-05-10T12:49:32.654Z,4.87
2018-05-10T12:52:05.311Z,2.80
2018-05-10T12:54:33.464Z,6.73
2018-05-10T12:57:01.605Z,2.27
2018-05-10T12:59:29.722Z,2.70
2018-05-10T13:01:58.612Z,7.63
2018-05-10T13:04:27.601Z,2.33
2018-05-10T13:06:55.841Z,2.73
2018-05-10T13:09:23.931Z,5.07
2018-05-10T13:11:52.321Z,4.33
2018-05-10T13:14:20.488Z,2.73
2018-05-10T13:16:48.763Z,3.20
2018-05-10T13:19:20.595Z,2.47
2018-05-10T13:21:49.348Z,2.50
2018-05-10T13:24:21.503Z,2.67
2018-05-10T13:26:49.615Z,2.50
2018-05-10T13:29:17.764Z,2.43
2018-05-10T13:31:46.603Z,3.40
2018-05-10T13:34:14.702Z,2.53
2018-05-10T13:36:42.821Z,3.90
2018-05-10T13:39:11.000Z,4.17
2018-05-10T13:41:39.945Z,1.90
2018-05-10T13:44:08.074Z,5.30
2018-05-10T13:46:36.241Z,3.43
2018-05-10T13:49:05.102Z,3.17
2018-05-10T13:51:33.228Z,2.57
2018-05-10T13:54:01.326Z,9.07
2018-05-10T13:56:29.577Z,2.80
2018-05-10T13:58:57.771Z,1.80
2018-05-10T14:01:25.962Z,2.80
2018-05-10T14:03:54.209Z,2.63
2018-05-10T14:06:22.491Z,2.93
2018-05-10T14:08:51.136Z,1.70
2018-05-10T14:11:19.337Z,4.00
2018-05-10T14:13:47.476Z,3.67
2018-05-10T14:16:15.592Z,4.50
2018-05-10T14:18:43.831Z,2.57
2018-05-10T14:21:12.794Z,2.07
2018-05-10T14:23:41.074Z,3.80
2018-05-10T14:26:09.374Z,2.30
2018-05-10T14:28:37.621Z,5.30
2018-05-10T14:31:06.057Z,3.03
2018-05-10T14:33:35.172Z,3.07
2018-05-10T14:36:03.600Z,4.07
2018-05-10T14:38:31.657Z,1.93
2018-05-10T14:40:59.984Z,3.90
2018-05-10T14:43:28.251Z,1.93
2018-05-10T14:45:56.832Z,1.63
2018-05-10T14:48:25.066Z,2.30
2018-05-10T14:50:53.328Z,2.23
2018-05-10T14:53:30.146Z,6.43
2018-05-10T14:55:58.352Z,4.00
2018-05-10T14:58:26.588Z,2.60
2018-05-10T15:00:54.821Z,1.63
2018-05-10T15:03:23.051Z,2.87
2018-05-10T15:05:52.012Z,4.87
2018-05-10T15:08:20.120Z,1.40
2018-05-10T15:10:48.728Z,1.87
2018-05-10T15:13:16.933Z,1.47
2018-05-10T15:15:45.074Z,5.70
2018-05-10T15:18:13.556Z,1.77
2018-05-10T15:20:41.702Z,2.17
2018-05-10T15:23:09.936Z,2.20
2018-05-10T15:25:38.233Z,1.07
2018-05-10T15:28:06.382Z,0.80
2018-05-10T15:30:34.537Z,1.27
2018-05-10T15:33:02.749Z,2.40
2018-05-10T15:35:31.749Z,1.20
2018-05-10T15:37:59.935Z,1.00
2018-05-10T15:40:28.733Z,1.53
2018-05-10T15:42:56.966Z,1.70
2018-05-10T15:45:25.187Z,1.67
2018-05-10T15:47:53.309Z,1.57
2018-05-10T15:50:21.866Z,1.83
2018-05-10T15:52:50.101Z,1.43
2018-05-10T15:55:18.283Z,0.93
2018-05-10T15:57:47.301Z,0.70
2018-05-10T16:00:15.530Z,1.00
2018-05-10T16:02:43.712Z,0.70
2018-05-10T16:05:11.941Z,1.43
2018-05-10T16:07:40.105Z,0.80
2018-05-10T16:10:08.365Z,2.57
2018-05-10T16:12:36.688Z,1.30
2018-05-10T16:15:04.890Z,1.23
2018-05-10T16:17:33.024Z,3.33
2018-05-10T16:20:01.458Z,0.80
2018-05-10T16:22:31.393Z,4.27
2018-05-10T16:24:59.651Z,0.77
2018-05-10T16:27:27.801Z,1.97
2018-05-10T16:29:55.971Z,1.50
2018-05-10T16:32:24.205Z,1.77
2018-05-10T16:34:53.335Z,0.80
2018-05-10T16:37:21.601Z,1.40
2018-05-10T16:39:49.758Z,3.17
2018-05-10T16:42:18.096Z,1.10
2018-05-10T16:44:46.285Z,0.90
2018-05-10T16:47:14.511Z,2.80
2018-05-10T16:49:42.683Z,3.80
2018-05-10T16:52:10.822Z,6.27
2018-05-10T16:54:39.022Z,1.00
2018-05-10T16:57:07.350Z,2.00
2018-05-10T16:59:35.835Z,2.67
2018-05-10T17:02:04.117Z,2.13
2018-05-10T17:04:32.421Z,1.20
2018-05-10T17:07:00.897Z,1.47
2018-05-10T17:09:29.188Z,0.93
2018-05-10T17:11:57.701Z,4.23
2018-05-10T17:14:25.955Z,1.63
2018-05-10T17:16:54.160Z,2.70
2018-05-10T17:19:22.320Z,18.30
2018-05-10T17:21:50.523Z,12.83
2018-05-10T17:24:18.765Z,1.10
2018-05-10T17:26:47.201Z,0.83
2018-05-10T17:29:15.631Z,1.17
2018-05-10T17:31:43.876Z,1.53
2018-05-10T17:34:12.052Z,15.87
2018-05-10T17:36:40.226Z,3.43
2018-05-10T17:39:08.348Z,18.33
2018-05-10T17:41:37.350Z,6.47
2018-05-10T17:44:05.904Z,2.60
2018-05-10T17:46:34.534Z,1.40
2018-05-10T17:49:03.245Z,7.10
2018-05-10T17:51:33.186Z,3.33
2018-05-10T17:54:01.469Z,1.60
2018-05-10T17:56:30.152Z,1.40
2018-05-10T17:58:58.358Z,1.30
2018-05-10T18:01:26.497Z,1.13
2018-05-10T18:03:54.750Z,0.93
2018-05-10T18:06:22.956Z,1.50
2018-05-10T18:08:51.392Z,1.43
2018-05-10T18:11:19.692Z,0.93
2018-05-10T18:13:47.975Z,1.07
2018-05-10T18:16:16.821Z,0.97
2018-05-10T18:18:45.363Z,2.23
2018-05-10T18:21:16.101Z,1.13
2018-05-10T18:23:44.467Z,1.20
2018-05-10T18:26:12.715Z,1.00
2018-05-10T18:28:41.565Z,0.90
2018-05-10T18:31:10.024Z,0.93
2018-05-10T18:33:38.302Z,1.03
2018-05-10T18:36:06.765Z,1.00
2018-05-10T18:38:35.052Z,1.67
2018-05-10T18:41:03.262Z,1.20
2018-05-10T18:43:31.530Z,1.00
2018-05-10T18:46:00.321Z,1.50
2018-05-10T18:48:28.448Z,1.33
2018-05-10T18:50:56.566Z,1.30
2018-05-10T18:53:24.660Z,2.23
2018-05-10T18:55:52.836Z,1.50
2018-05-10T18:58:20.934Z,1.30
2018-05-10T19:00:49.101Z,1.30
2018-05-10T19:03:17.268Z,3.80
2018-05-10T19:05:45.388Z,5.20
2018-05-10T19:08:14.268Z,1.40
2018-05-10T19:10:42.397Z,1.07
2018-05-10T19:13:10.526Z,1.73
2018-05-10T19:15:38.642Z,1.10
2018-05-10T19:18:06.789Z,1.40
2018-05-10T19:20:34.972Z,1.77
2018-05-10T19:23:03.096Z,1.60
2018-05-10T19:25:32.154Z,2.10
2018-05-10T19:28:00.288Z,2.20
2018-05-10T19:30:28.395Z,2.60
2018-05-10T19:32:56.502Z,2.60
2018-05-10T19:35:24.601Z,5.93
2018-05-10T19:37:52.706Z,3.97
2018-05-10T19:40:20.833Z,3.67
2018-05-10T19:42:48.937Z,4.13
2018-05-10T19:45:17.112Z,4.50
2018-05-10T19:47:45.216Z,4.47
2018-05-10T19:50:13.328Z,5.03
2018-05-10T19:52:41.417Z,3.67
2018-05-10T19:55:09.523Z,5.13
2018-05-10T19:57:41.630Z,2.93
2018-05-10T20:00:09.737Z,2.53
2018-05-10T20:02:37.861Z,2.80
2018-05-10T20:05:05.961Z,2.50
2018-05-10T20:07:34.077Z,2.53
2018-05-10T20:10:02.179Z,2.40
2018-05-10T20:12:30.433Z,3.37
2018-05-10T20:14:58.590Z,2.30
2018-05-10T20:17:26.835Z,2.40
2018-05-10T20:19:55.064Z,2.60
2018-05-10T20:22:23.292Z,3.07
2018-05-10T20:24:51.845Z,3.30
2018-05-10T20:27:19.952Z,3.77
2018-05-10T20:29:48.144Z,4.73
2018-05-10T20:32:16.315Z,3.60
2018-05-10T20:34:44.410Z,4.63
2018-05-10T20:37:13.011Z,4.00
2018-05-10T20:39:41.116Z,5.00
2018-05-10T20:42:09.273Z,4.23
2018-05-10T20:44:37.399Z,5.00
2018-05-10T20:47:05.534Z,4.40
2018-05-10T20:49:34.414Z,5.53
2018-05-10T20:52:03.360Z,6.60
2018-05-10T20:54:31.494Z,8.63
2018-05-10T20:56:59.718Z,7.20
2018-05-10T20:59:27.959Z,5.90
2018-05-10T21:01:56.311Z,6.63
2018-05-10T21:04:24.841Z,7.37
2018-05-10T21:06:53.986Z,6.87
2018-05-10T21:09:22.855Z,6.77
2018-05-10T21:11:51.081Z,9.90
2018-05-10T21:14:23.091Z,7.77
2018-05-10T21:16:51.361Z,7.57
2018-05-10T21:19:20.146Z,8.90
2018-05-10T21:21:48.256Z,10.97
2018-05-10T21:24:16.747Z,10.80
2018-05-10T21:26:44.880Z,9.40
2018-05-10T21:29:12.989Z,11.37
2018-05-10T21:31:41.085Z,8.83
2018-05-10T21:34:09.227Z,9.67
2018-05-10T21:36:37.410Z,12.73
2018-05-10T21:39:07.112Z,9.33
2018-05-10T21:41:35.232Z,8.37
2018-05-10T21:44:03.354Z,9.90
2018-05-10T21:46:31.510Z,10.27
2018-05-10T21:48:59.829Z,8.20
2018-05-10T21:51:28.030Z,8.33
2018-05-10T21:53:56.234Z,6.57
2018-05-10T21:56:24.360Z,10.80
2018-05-10T21:58:52.513Z,8.70
2018-05-10T22:01:20.605Z,8.07
2018-05-10T22:03:48.725Z,10.27
2018-05-10T22:06:46.302Z,8.90
2018-05-10T22:09:16.302Z,9.63
2018-05-10T22:11:44.409Z,8.80
2018-05-10T22:14:13.706Z,8.50
2018-05-10T22:16:41.953Z,8.33
2018-05-10T22:19:10.071Z,6.97
2018-05-10T22:21:38.185Z,8.00
2018-05-10T22:24:06.408Z,8.53
2018-05-10T22:26:34.661Z,6.57
2018-05-10T22:29:02.916Z,6.63
2018-05-10T22:31:31.395Z,8.03
2018-05-10T22:33:59.498Z,7.50
2018-05-10T22:36:27.657Z,8.83
2018-05-10T22:38:55.905Z,8.13
2018-05-10T22:41:24.145Z,7.13
2018-05-10T22:43:52.399Z,9.93
2018-05-10T22:46:20.505Z,7.23
2018-05-10T22:48:48.611Z,7.47
2018-05-10T22:51:17.191Z,9.07
2018-05-10T22:53:45.417Z,9.40
2018-05-10T22:56:13.537Z,11.87
2018-05-10T22:58:42.891Z,8.23
2018-05-10T23:01:11.093Z,8.40
2018-05-10T23:03:39.280Z,7.70
2018-05-10T23:06:07.489Z,10.33
2018-05-10T23:08:35.559Z,8.40
2018-05-10T23:11:04.247Z,7.27
2018-05-10T23:13:32.622Z,7.60
2018-05-10T23:16:00.719Z,5.77
2018-05-10T23:18:28.900Z,7.30
2018-05-10T23:20:57.080Z,5.70
2018-05-10T23:23:25.254Z,5.57
2018-05-10T23:25:53.360Z,8.53
2018-05-10T23:28:21.496Z,6.37
2018-05-10T23:30:49.626Z,7.43
2018-05-10T23:33:18.551Z,5.43
2018-05-10T23:35:46.667Z,6.87
2018-05-10T23:38:14.829Z,5.07
2018-05-10T23:40:43.042Z,5.80
2018-05-10T23:43:11.176Z,5.67
2018-05-10T23:45:39.284Z,6.70
2018-05-10T23:48:07.753Z,8.80
2018-05-10T23:50:36.474Z,6.00
2018-05-10T23:53:04.612Z,5.83
2018-05-10T23:55:32.748Z,6.03
2018-05-10T23:58:01.821Z,6.77
